Robert Gray Army Air Field Airport
KGRK : now visible

Airfield :











YOU CAN JOIN US ON...

 
LOGIN :

Register | Disclaimer

   EN    FR    IT 

 









Legend :    VFR   Marginal VFR   IFR   Intensive IFR   Very Intensive IFR
Visi :
Ceiling :
>= 8 km
>= 3000ft
5 to 8 km
1000 to 3000 ft
1500m to 5 km
500 to 1000 ft
800 to 1500m
200 to 500 ft
< 800m
< 200 ft
Symbols :   Thunderstorms  Fog  Heavy snow  Heavy precipitations  Wind > 20 kt






- Airport Elevation : 1015 ft
- IATA code : GRK


KGRK - Robert Gray Army Air Field

CURRENT METAR :
  • 262358Z AUTO 04007KT 7SM CLR 19/07 A2995 RMK AO2 SLP138 T01860066 10233 20186 53002 $

EXPIRED METARs :
  • 262258Z AUTO 35009KT 9SM CLR 22/04 A2995 RMK AO2 SLP137 T02180044 $
  • 262158Z AUTO 36009KT 10SM CLR 23/04 A2994 RMK AO2 SLP133 T02300044 $

TAF TAF KGRK
Valid from the 27 at 00:00 until the 28 at 06:00 UTC


270000Z 2700/2806 01006KT 9999 FEW250 QNH2993INS
BECMG 2709/2710 01006KT 3200 BR BKN020 QNH3001INS
TEMPO 2711/2714 0800 FG VV003
BECMG 2713/2714 11009KT 9999 NSW BKN030 QNH3006INS
BECMG 2804/2805 17009KT 9000 BR BKN020 QNH2990INS TX23/2700Z TN12/2712Z



MET'MAP, your aeronautical weather chart ! - Copyright ORBIFLY December 2007 - Disclaimer

ORBIFLY MET'MAP TEAM :

Programming & Development : Alexandra Zaïnal
Concept & original design : Baudouin d'Aumeries
Assistance for programming : Marc-Olivier Méhu
Technical & hardware support : Manuel Goepfert

Contact : metmap@orbifly.com




SOURCES & CREDITS :

   NOAA       Earth
Advisory